createdAt,value
2022-09-27T00:01:59.113Z,0.90
2022-09-27T00:04:28.516Z,0.87
2022-09-27T00:06:57.108Z,0.87
2022-09-27T00:09:25.687Z,0.89
2022-09-27T00:11:54.322Z,0.87
2022-09-27T00:14:24.239Z,0.89
2022-09-27T00:16:52.864Z,0.95
2022-09-27T00:19:23.224Z,0.93
2022-09-27T00:21:52.059Z,1.01
2022-09-27T00:24:22.888Z,1.09
2022-09-27T00:26:51.563Z,1.19
2022-09-27T00:29:20.782Z,1.28
2022-09-27T00:31:49.408Z,1.33
2022-09-27T00:34:23.517Z,1.39
2022-09-27T00:36:53.469Z,1.41
2022-09-27T00:39:22.052Z,1.30
2022-09-27T00:41:50.863Z,1.47
2022-09-27T00:44:26.336Z,1.52
2022-09-27T00:47:01.429Z,1.55
2022-09-27T00:49:51.763Z,1.59
2022-09-27T00:52:49.363Z,1.67
2022-09-27T00:55:21.661Z,1.72
2022-09-27T00:57:51.638Z,1.79
2022-09-27T01:00:22.567Z,1.84
2022-09-27T01:02:54.341Z,1.97
2022-09-27T01:05:27.680Z,2.09
2022-09-27T01:08:01.374Z,2.24
2022-09-27T01:10:39.043Z,2.39
2022-09-27T01:13:23.479Z,2.54
2022-09-27T01:16:37.004Z,2.64
2022-09-27T01:19:38.150Z,2.69
2022-09-27T01:22:56.228Z,2.74
2022-09-27T01:25:31.647Z,2.74
2022-09-27T01:28:26.889Z,2.77
2022-09-27T01:31:22.438Z,2.73
2022-09-27T01:34:16.124Z,2.74
2022-09-27T01:36:50.885Z,2.78
2022-09-27T01:39:50.628Z,2.78
2022-09-27T01:42:34.976Z,2.95
2022-09-27T01:45:21.770Z,3.04
2022-09-27T01:48:08.316Z,3.19
2022-09-27T01:51:20.218Z,3.43
2022-09-27T01:53:55.198Z,3.48
2022-09-27T01:56:32.913Z,3.54
2022-09-27T01:59:30.265Z,3.63
2022-09-27T02:02:12.804Z,3.69
2022-09-27T02:05:06.618Z,3.68
2022-09-27T02:07:54.105Z,3.84
2022-09-27T02:10:27.935Z,3.97
2022-09-27T02:13:23.068Z,3.93
2022-09-27T02:16:20.439Z,3.96
2022-09-27T02:19:17.172Z,4.01
2022-09-27T02:21:52.206Z,4.15
2022-09-27T02:24:25.418Z,4.28
2022-09-27T02:27:12.223Z,4.39
2022-09-27T02:29:51.570Z,4.44
2022-09-27T02:32:20.650Z,4.39
2022-09-27T02:34:51.231Z,4.36
2022-09-27T02:37:20.142Z,4.52
2022-09-27T02:39:49.799Z,4.57
2022-09-27T02:42:19.683Z,4.65
2022-09-27T02:44:48.728Z,4.73
2022-09-27T02:47:24.223Z,4.80
2022-09-27T02:50:26.125Z,4.77
2022-09-27T02:53:31.554Z,4.79
2022-09-27T02:56:36.008Z,4.80
2022-09-27T02:59:47.533Z,4.93
2022-09-27T03:02:54.636Z,5.06
2022-09-27T03:06:13.979Z,4.93
2022-09-27T03:08:44.073Z,4.99
2022-09-27T03:11:13.234Z,4.91
2022-09-27T03:14:01.826Z,4.83
2022-09-27T03:16:31.790Z,4.76
2022-09-27T03:19:12.309Z,4.64
2022-09-27T03:21:59.536Z,4.56
2022-09-27T03:24:28.332Z,4.53
2022-09-27T03:26:57.013Z,4.36
2022-09-27T03:29:25.688Z,4.16
2022-09-27T03:32:04.311Z,4.00
2022-09-27T03:34:55.903Z,3.91
2022-09-27T03:37:24.967Z,3.86
2022-09-27T04:00:48.884Z,4.61
2022-09-27T04:03:20.342Z,4.65
2022-09-27T04:06:07.796Z,4.78
2022-09-27T04:08:43.271Z,4.79
2022-09-27T04:11:14.253Z,4.77
2022-09-27T04:13:47.911Z,4.80
2022-09-27T04:16:17.627Z,4.77
2022-09-27T04:19:09.465Z,4.60
2022-09-27T04:21:50.405Z,4.46
2022-09-27T04:24:19.750Z,4.40
2022-09-27T04:27:08.496Z,4.33
2022-09-27T04:29:43.682Z,4.30
2022-09-27T04:32:30.169Z,4.25
2022-09-27T04:35:37.385Z,4.30
2022-09-27T04:38:06.176Z,4.32
2022-09-27T04:40:36.100Z,4.34
2022-09-27T04:43:05.604Z,4.31
2022-09-27T04:45:34.445Z,4.40
2022-09-27T04:48:03.376Z,4.47
2022-09-27T04:50:36.574Z,4.49
2022-09-27T04:53:06.589Z,4.57
2022-09-27T04:55:36.080Z,4.63
2022-09-27T04:58:05.614Z,4.71
2022-09-27T05:00:34.517Z,4.71
2022-09-27T05:03:21.144Z,4.84
2022-09-27T05:06:02.249Z,4.89
2022-09-27T05:08:31.286Z,4.87
2022-09-27T05:11:38.426Z,4.86
2022-09-27T05:17:25.656Z,4.64
2022-09-27T05:20:12.935Z,4.69
2022-09-27T05:22:53.385Z,4.59
2022-09-27T05:25:23.317Z,4.63
2022-09-27T05:27:53.239Z,4.64
2022-09-27T05:30:22.067Z,4.62
2022-09-27T05:32:57.496Z,4.53
2022-09-27T05:35:45.874Z,4.55
2022-09-27T05:38:15.191Z,4.59
2022-09-27T05:40:50.731Z,4.56
2022-09-27T05:43:20.564Z,4.56
2022-09-27T05:45:51.818Z,4.54
2022-09-27T05:48:22.687Z,4.61
2022-09-27T05:50:59.899Z,4.68
2022-09-27T05:53:28.366Z,4.61
2022-09-27T05:55:58.542Z,4.54
2022-09-27T05:58:36.368Z,4.47
2022-09-27T06:01:18.581Z,4.34
2022-09-27T06:04:06.230Z,4.40
2022-09-27T06:06:59.445Z,4.45
2022-09-27T06:09:28.700Z,4.49
2022-09-27T06:11:58.555Z,4.60
2022-09-27T06:14:28.182Z,4.72
2022-09-27T06:21:21.348Z,5.00
2022-09-27T06:23:56.846Z,4.95
2022-09-27T06:26:31.677Z,5.03
2022-09-27T06:29:15.879Z,4.97
2022-09-27T06:31:52.274Z,4.96
2022-09-27T06:34:49.845Z,4.97
2022-09-27T06:37:19.493Z,4.90
2022-09-27T06:39:49.891Z,4.89
2022-09-27T06:42:54.383Z,4.95
2022-09-27T06:45:50.892Z,5.04
2022-09-27T06:48:43.099Z,5.23
2022-09-27T06:51:16.457Z,5.41
2022-09-27T06:53:45.498Z,5.50
2022-09-27T06:56:14.945Z,5.50
2022-09-27T06:59:12.287Z,5.47
2022-09-27T07:01:45.454Z,5.53
2022-09-27T07:04:32.914Z,5.54
2022-09-27T07:07:01.594Z,5.46
2022-09-27T07:09:50.666Z,5.42
2022-09-27T07:12:23.657Z,5.40
2022-09-27T07:14:52.280Z,5.42
2022-09-27T07:17:20.995Z,5.32
2022-09-27T07:19:52.014Z,5.26
2022-09-27T07:22:21.298Z,5.18
2022-09-27T07:24:56.257Z,5.14
2022-09-27T07:27:27.237Z,5.10
2022-09-27T07:29:56.741Z,4.98
2022-09-27T07:32:27.137Z,4.91
2022-09-27T07:34:56.016Z,4.86
2022-09-27T07:37:24.898Z,4.83
2022-09-27T07:39:53.483Z,4.86
2022-09-27T07:42:22.049Z,4.87
2022-09-27T07:44:56.505Z,4.88
2022-09-27T07:47:45.310Z,4.94
2022-09-27T07:50:30.674Z,4.98
2022-09-27T07:53:06.011Z,4.92
2022-09-27T07:55:44.505Z,4.95
2022-09-27T07:58:15.477Z,5.08
2022-09-27T08:00:44.893Z,5.10
2022-09-27T08:03:18.287Z,5.02
2022-09-27T08:05:49.020Z,5.02
2022-09-27T08:08:19.347Z,5.02
2022-09-27T08:10:50.225Z,5.12
2022-09-27T08:13:20.733Z,5.08
2022-09-27T08:15:53.252Z,5.04
2022-09-27T08:18:25.164Z,5.00
2022-09-27T08:21:00.851Z,4.91
2022-09-27T08:24:04.917Z,4.82
2022-09-27T08:26:54.299Z,4.75
2022-09-27T08:29:32.805Z,4.67
2022-09-27T08:32:01.826Z,4.68
2022-09-27T08:34:30.569Z,4.59
2022-09-27T08:36:59.874Z,4.60
2022-09-27T08:39:28.723Z,4.46
2022-09-27T08:42:19.159Z,4.41
2022-09-27T08:45:03.424Z,4.43
2022-09-27T08:47:55.741Z,4.48
2022-09-27T08:50:30.268Z,4.59
2022-09-27T08:53:15.197Z,4.75
2022-09-27T08:56:01.559Z,4.82
2022-09-27T08:58:40.390Z,4.85
2022-09-27T09:01:20.893Z,4.89
2022-09-27T09:04:04.765Z,5.05
2022-09-27T09:06:55.785Z,5.02
2022-09-27T09:09:33.560Z,4.96
2022-09-27T09:12:49.415Z,4.93
2022-09-27T09:16:19.067Z,4.81
2022-09-27T09:19:06.595Z,4.78
2022-09-27T09:22:29.338Z,4.81
2022-09-27T09:25:04.847Z,4.67
2022-09-27T09:27:45.822Z,4.66
2022-09-27T09:30:25.630Z,4.56
2022-09-27T09:33:16.423Z,4.49
2022-09-27T09:36:33.529Z,4.50
2022-09-27T09:39:37.389Z,4.45
2022-09-27T09:42:12.206Z,4.30
2022-09-27T09:44:45.937Z,4.27
2022-09-27T09:47:33.331Z,4.23
2022-09-27T09:50:08.288Z,4.20
2022-09-27T09:52:47.091Z,4.25
2022-09-27T09:55:30.369Z,4.28
2022-09-27T09:58:29.703Z,4.15
2022-09-27T10:01:25.877Z,4.08
2022-09-27T10:03:58.439Z,4.04
2022-09-27T10:06:29.453Z,3.92
2022-09-27T10:09:00.265Z,3.94
2022-09-27T10:11:47.267Z,3.90
2022-09-27T10:14:24.510Z,3.89
2022-09-27T10:17:03.111Z,3.83
2022-09-27T10:19:35.261Z,3.83
2022-09-27T10:22:33.819Z,3.79
2022-09-27T10:25:11.627Z,3.81
2022-09-27T10:28:02.994Z,3.80
2022-09-27T10:30:38.984Z,3.76
2022-09-27T10:33:20.300Z,3.76
2022-09-27T10:36:02.410Z,3.72
2022-09-27T10:38:37.603Z,3.68
2022-09-27T10:41:38.173Z,3.61
2022-09-27T10:44:16.355Z,3.66
2022-09-27T10:46:51.598Z,3.63
2022-09-27T10:49:42.652Z,3.61
2022-09-27T10:52:30.393Z,3.58
2022-09-27T10:54:59.243Z,3.53
2022-09-27T10:57:30.948Z,3.47
2022-09-27T11:00:09.331Z,3.41
2022-09-27T11:02:42.110Z,3.32
2022-09-27T11:05:28.266Z,3.26
2022-09-27T11:07:59.482Z,3.24
2022-09-27T11:11:20.382Z,3.24
2022-09-27T11:14:25.792Z,3.18
2022-09-27T11:17:19.307Z,3.13
2022-09-27T11:20:02.259Z,3.08
2022-09-27T11:22:53.426Z,3.06
2022-09-27T11:26:04.691Z,3.02
2022-09-27T11:29:03.413Z,2.99
2022-09-27T11:32:28.409Z,2.96
2022-09-27T11:35:20.246Z,2.90
2022-09-27T11:38:40.698Z,2.82
2022-09-27T11:41:23.681Z,2.72
2022-09-27T11:44:47.552Z,2.59
2022-09-27T11:47:37.376Z,2.48
2022-09-27T11:50:47.543Z,2.40
2022-09-27T11:53:53.614Z,2.26
2022-09-27T11:56:44.760Z,2.17
2022-09-27T11:59:43.674Z,2.05
2022-09-27T12:02:39.322Z,2.03
2022-09-27T12:05:20.467Z,1.94
2022-09-27T12:08:16.492Z,1.81
2022-09-27T12:10:53.963Z,1.91
2022-09-27T12:14:09.466Z,1.95
2022-09-27T12:16:42.087Z,1.92
2022-09-27T12:19:23.763Z,1.83
2022-09-27T12:22:05.512Z,1.75
2022-09-27T12:24:41.350Z,1.65
2022-09-27T12:28:07.492Z,1.61
2022-09-27T12:30:42.239Z,1.56
2022-09-27T12:33:30.925Z,1.54
2022-09-27T12:36:27.777Z,1.50
2022-09-27T12:39:12.702Z,1.52
2022-09-27T12:41:50.347Z,1.47
2022-09-27T12:44:53.093Z,1.41
2022-09-27T12:48:04.078Z,1.38
2022-09-27T12:50:43.587Z,1.35
2022-09-27T12:53:41.880Z,1.30
2022-09-27T12:56:57.928Z,1.23
2022-09-27T12:59:50.817Z,1.21
2022-09-27T13:03:15.101Z,1.10
2022-09-27T13:06:26.639Z,1.04
2022-09-27T13:09:19.550Z,1.00
2022-09-27T13:12:03.979Z,1.00
2022-09-27T13:14:40.091Z,0.95
2022-09-27T13:17:52.747Z,0.95
2022-09-27T13:21:02.661Z,0.86
2022-09-27T13:23:55.203Z,0.90
2022-09-27T13:26:47.541Z,0.89
2022-09-27T13:29:27.306Z,0.93
2022-09-27T13:31:58.384Z,0.93
2022-09-27T13:34:45.125Z,0.92
2022-09-27T13:38:08.322Z,0.90
2022-09-27T13:40:50.479Z,0.82
2022-09-27T13:43:28.341Z,0.81
2022-09-27T13:46:16.439Z,0.77
2022-09-27T13:49:20.389Z,0.76
2022-09-27T13:52:20.390Z,0.76
2022-09-27T13:54:55.545Z,0.76
2022-09-27T13:57:54.547Z,0.74
2022-09-27T14:00:44.243Z,0.65
2022-09-27T14:03:51.011Z,0.72
2022-09-27T14:06:51.340Z,0.72
2022-09-27T14:09:28.305Z,0.67
2022-09-27T14:13:19.658Z,0.67
2022-09-27T14:16:02.969Z,0.63
2022-09-27T14:19:23.266Z,0.61
2022-09-27T14:21:57.779Z,0.57
2022-09-27T14:24:41.047Z,0.55
2022-09-27T14:27:41.080Z,0.50
2022-09-27T14:30:30.983Z,0.51
2022-09-27T14:33:32.926Z,0.51
2022-09-27T14:36:27.928Z,0.48
2022-09-27T14:39:31.706Z,0.48
2022-09-27T14:42:05.999Z,0.41
2022-09-27T14:44:36.155Z,0.44
2022-09-27T14:47:25.987Z,0.42
2022-09-27T14:50:20.642Z,0.42
2022-09-27T14:52:50.401Z,0.40
2022-09-27T14:55:26.786Z,0.44
2022-09-27T14:58:00.102Z,0.46
2022-09-27T15:00:33.340Z,0.43
2022-09-27T15:03:05.584Z,0.44
2022-09-27T15:05:36.703Z,0.43
2022-09-27T15:08:07.049Z,0.44
2022-09-27T15:10:37.820Z,0.46
2022-09-27T15:13:07.459Z,0.42
2022-09-27T15:15:40.245Z,0.43
2022-09-27T15:18:32.281Z,0.39
2022-09-27T15:21:02.036Z,0.34
2022-09-27T15:23:40.799Z,0.35
2022-09-27T15:26:20.166Z,0.32
2022-09-27T15:28:52.733Z,0.35
2022-09-27T15:31:36.474Z,0.38
2022-09-27T15:34:10.323Z,0.41
2022-09-27T15:36:56.306Z,0.44
2022-09-27T15:39:35.695Z,0.45
2022-09-27T15:42:11.017Z,0.46
2022-09-27T15:44:53.670Z,0.50
2022-09-27T15:47:39.151Z,0.52
2022-09-27T15:50:17.118Z,0.52
2022-09-27T15:52:48.301Z,0.53
2022-09-27T15:55:23.302Z,0.53
2022-09-27T15:58:02.664Z,0.53
2022-09-27T16:00:32.338Z,0.52
2022-09-27T16:03:01.216Z,0.49
2022-09-27T16:05:30.979Z,0.52
2022-09-27T16:07:59.962Z,0.47
2022-09-27T16:10:37.320Z,0.50
2022-09-27T16:13:06.243Z,0.52
2022-09-27T16:15:35.416Z,0.51
2022-09-27T16:18:04.575Z,0.52
2022-09-27T16:20:33.269Z,0.48
2022-09-27T16:23:02.757Z,0.43
2022-09-27T16:25:31.674Z,0.47
2022-09-27T16:28:01.381Z,0.54
2022-09-27T16:30:30.683Z,0.60
2022-09-27T16:32:59.812Z,0.72
2022-09-27T16:35:28.923Z,0.76
2022-09-27T16:37:58.852Z,0.84
2022-09-27T16:40:28.712Z,0.72
2022-09-27T16:42:57.358Z,0.86
2022-09-27T16:45:30.732Z,0.81
2022-09-27T16:48:01.705Z,0.79
2022-09-27T16:50:48.896Z,0.78
2022-09-27T16:53:17.562Z,0.69
2022-09-27T16:55:46.255Z,0.57
2022-09-27T16:58:15.199Z,0.50
2022-09-27T17:00:44.612Z,0.45
2022-09-27T17:03:13.329Z,0.46
2022-09-27T17:05:42.029Z,0.45
2022-09-27T17:08:10.996Z,0.50
2022-09-27T17:10:45.650Z,0.50
2022-09-27T17:13:14.484Z,0.60
2022-09-27T17:15:43.430Z,0.64
2022-09-27T17:18:14.210Z,0.67
2022-09-27T17:20:43.286Z,0.77
2022-09-27T17:23:12.173Z,0.81
2022-09-27T17:25:41.396Z,0.80
2022-09-27T17:28:10.000Z,0.86
2022-09-27T17:30:46.342Z,0.85
2022-09-27T17:33:15.100Z,0.84
2022-09-27T17:35:44.822Z,0.85
2022-09-27T17:38:13.448Z,0.85
2022-09-27T17:40:42.208Z,0.80
2022-09-27T17:43:11.562Z,0.79
2022-09-27T17:45:40.134Z,0.74
2022-09-27T17:48:27.478Z,0.73
2022-09-27T17:50:56.075Z,0.76
2022-09-27T17:53:24.996Z,0.77
2022-09-27T17:55:55.084Z,0.81
2022-09-27T17:58:23.712Z,0.78
2022-09-27T18:00:53.273Z,0.81
2022-09-27T18:03:22.094Z,0.90
2022-09-27T18:05:50.728Z,0.92
2022-09-27T18:08:19.324Z,0.95
2022-09-27T18:10:48.724Z,0.99
2022-09-27T18:14:33.263Z,1.01
2022-09-27T18:17:02.244Z,1.06
2022-09-27T18:19:30.868Z,1.10
2022-09-27T18:22:01.226Z,1.11
2022-09-27T18:24:30.545Z,1.11
2022-09-27T18:27:00.246Z,1.12
2022-09-27T18:29:29.624Z,1.20
2022-09-27T18:31:58.226Z,1.22
2022-09-27T18:34:27.325Z,1.19
2022-09-27T18:36:55.956Z,1.29
2022-09-27T18:39:25.315Z,1.33
2022-09-27T18:41:55.872Z,1.36
2022-09-27T18:44:24.564Z,1.37
2022-09-27T18:46:53.157Z,1.38
2022-09-27T18:49:26.236Z,1.38
2022-09-27T18:51:57.363Z,1.33
2022-09-27T18:54:26.957Z,1.26
2022-09-27T18:56:55.506Z,1.26
2022-09-27T18:59:24.586Z,1.23
2022-09-27T19:01:53.691Z,1.24
2022-09-27T19:04:25.449Z,1.17
2022-09-27T19:06:55.639Z,1.23
2022-09-27T19:09:26.791Z,1.20
2022-09-27T19:11:55.548Z,1.20
2022-09-27T19:14:24.226Z,1.18
2022-09-27T19:16:53.021Z,1.15
2022-09-27T19:19:22.590Z,1.19
2022-09-27T19:21:51.231Z,1.16
2022-09-27T19:24:19.782Z,1.20
2022-09-27T19:26:48.654Z,1.21
2022-09-27T19:29:17.321Z,1.25
2022-09-27T19:31:45.994Z,1.30
2022-09-27T19:34:15.351Z,1.32
2022-09-27T19:36:43.945Z,1.32
2022-09-27T19:39:12.609Z,1.32
2022-09-27T19:41:41.405Z,1.33
2022-09-27T19:44:10.250Z,1.40
2022-09-27T19:46:40.170Z,1.35
2022-09-27T19:49:08.807Z,1.44
2022-09-27T19:51:37.994Z,1.42
2022-09-27T19:54:06.999Z,1.41
2022-09-27T19:56:35.508Z,1.43
2022-09-27T19:59:15.868Z,1.38
2022-09-27T20:01:44.898Z,1.54
2022-09-27T20:04:13.742Z,1.51
2022-09-27T20:06:42.353Z,1.50
2022-09-27T20:09:11.638Z,1.55
2022-09-27T20:11:40.225Z,1.58
2022-09-27T20:14:08.828Z,1.63
2022-09-27T20:16:41.234Z,1.70
2022-09-27T20:19:10.786Z,1.69
2022-09-27T20:21:39.411Z,1.72
2022-09-27T20:24:08.126Z,1.73
2022-09-27T20:26:38.304Z,1.72
2022-09-27T20:29:08.329Z,1.73
2022-09-27T20:31:46.432Z,1.72
2022-09-27T20:34:28.588Z,1.65
2022-09-27T20:36:57.165Z,1.69
2022-09-27T20:39:26.079Z,1.66
2022-09-27T20:41:55.110Z,1.66
2022-09-27T20:44:23.703Z,1.68
2022-09-27T20:46:52.277Z,1.64
2022-09-27T20:49:21.126Z,1.62
2022-09-27T20:51:50.035Z,1.63
2022-09-27T20:54:18.905Z,1.57
2022-09-27T20:56:49.327Z,1.58
2022-09-27T20:59:19.797Z,1.60
2022-09-27T21:01:50.884Z,1.58
2022-09-27T21:04:21.833Z,1.59
2022-09-27T21:06:50.554Z,1.61
2022-09-27T21:09:20.194Z,1.61
2022-09-27T21:11:52.240Z,1.60
2022-09-27T21:14:21.180Z,1.65
2022-09-27T21:16:49.788Z,1.66
2022-09-27T21:19:18.488Z,1.68
2022-09-27T21:21:47.418Z,1.67
2022-09-27T21:24:16.289Z,1.68
2022-09-27T21:26:46.252Z,1.67
2022-09-27T21:29:15.241Z,1.68
2022-09-27T21:31:44.041Z,1.68
2022-09-27T21:34:12.655Z,1.66
2022-09-27T21:36:41.953Z,1.67
2022-09-27T21:39:11.291Z,1.71
2022-09-27T21:41:39.975Z,1.71
2022-09-27T21:44:08.926Z,1.71
2022-09-27T21:46:41.161Z,1.70
2022-09-27T21:49:11.499Z,1.69
2022-09-27T21:51:43.345Z,1.72
2022-09-27T21:54:15.764Z,1.73
2022-09-27T21:56:44.743Z,1.75
2022-09-27T21:59:19.077Z,1.68
2022-09-27T22:01:48.756Z,1.75
2022-09-27T22:04:18.299Z,1.75
2022-09-27T22:06:46.981Z,1.77
2022-09-27T22:09:17.659Z,1.77
2022-09-27T22:11:47.956Z,1.71
2022-09-27T22:14:19.346Z,1.68
2022-09-27T22:16:48.695Z,1.68
2022-09-27T22:19:17.535Z,1.55
2022-09-27T22:21:46.229Z,1.66
2022-09-27T22:24:18.780Z,1.65
2022-09-27T22:26:51.151Z,1.60
2022-09-27T22:29:19.868Z,1.54
2022-09-27T22:31:48.692Z,1.45
2022-09-27T22:34:29.343Z,1.42
2022-09-27T22:37:01.358Z,1.39
2022-09-27T22:39:30.043Z,1.36
2022-09-27T22:41:59.325Z,1.33
2022-09-27T22:44:27.917Z,1.37
2022-09-27T22:46:56.479Z,1.36
2022-09-27T22:49:25.211Z,1.31
2022-09-27T22:51:54.321Z,1.28
2022-09-27T22:54:23.587Z,1.25
2022-09-27T22:56:57.579Z,1.26
2022-09-27T22:59:27.613Z,1.21
2022-09-27T23:01:57.298Z,1.14
2022-09-27T23:04:25.923Z,1.08
2022-09-27T23:06:55.331Z,0.98
2022-09-27T23:09:23.880Z,0.92
2022-09-27T23:11:54.110Z,0.88
2022-09-27T23:14:23.756Z,0.79
2022-09-27T23:16:53.631Z,0.74
2022-09-27T23:19:23.739Z,0.69
2022-09-27T23:21:52.418Z,0.61
2022-09-27T23:24:21.699Z,0.58
2022-09-27T23:27:10.276Z,0.53
2022-09-27T23:29:39.869Z,0.41
2022-09-27T23:32:08.528Z,0.38
2022-09-27T23:34:37.076Z,0.41
2022-09-27T23:37:06.482Z,0.37
2022-09-27T23:39:35.301Z,0.33
2022-09-27T23:42:04.107Z,0.23
2022-09-27T23:44:32.822Z,0.35
2022-09-27T23:47:02.795Z,0.30
2022-09-27T23:49:32.654Z,0.28
2022-09-27T23:52:01.724Z,0.26
2022-09-27T23:54:31.400Z,0.22
2022-09-27T23:57:00.097Z,0.14
2022-09-27T23:59:29.076Z,0.15
